Time;durP1;ratioP1;P1;durP2;ratioP2;P2;SDS_P1;SDS_P2;PMS_P1;PMS_P2;Temp;Humidity;BMP_temperature;BMP_pressure;BME280_temperature;BME280_humidity;BME280_pressure;Samples;Min_cycle;Max_cycle;Signal;HPM_P1;HPM_P2
2024/03/19 00:00:39;;;;;;;;;;;;;;;14.03;50.40;99064.34;5050983;28;20401;-81
2024/03/19 00:03:04;;;;;;;;;;;;;;;13.99;49.46;99066.59;5051829;28;19928;-81
2024/03/19 00:05:30;;;;;;;;;;;;;;;13.98;49.93;99080.91;5050692;28;20375;-81
2024/03/19 00:07:55;;;;;;;;;;;;;;;13.93;49.48;99084.19;5052092;28;20004;-80
2024/03/19 00:10:21;;;;;;;;;;;;;;;13.87;49.53;99089.53;5052065;28;19971;-80
2024/03/19 00:12:46;;;;;;;;;;;;;;;13.78;49.90;99081.00;5051916;28;20420;-81
2024/03/19 00:15:11;;;;;;;;;;;;;;;13.62;50.01;99070.84;5051995;28;20401;-81
2024/03/19 00:17:36;;;;;;;;;;;;;;;13.52;50.72;99079.25;5050593;28;19913;-80
2024/03/19 00:20:11;;;;;;;;;;;;;;;13.50;50.41;99075.97;5050336;28;19998;-80
2024/03/19 00:22:36;;;;;;;;;;;;;;;13.48;51.03;99072.72;5051473;28;19913;-81
2024/03/19 00:25:02;;;;;;;;;;;;;;;13.44;50.84;99060.09;5051549;28;19916;-81
2024/03/19 00:27:27;;;;;;;;;;;;;;;13.42;49.81;99057.66;5051776;28;19985;-80
2024/03/19 00:29:52;;;;;;;;;;;;;;;13.38;50.41;99060.88;5051669;28;19920;-80
2024/03/19 00:32:18;;;;;;;;;;;;;;;13.38;50.40;99059.09;5051630;28;19917;-81
2024/03/19 00:34:43;;;;;;;;;;;;;;;13.36;50.62;99053.13;5050331;28;19913;-81
2024/03/19 00:37:08;;;;;;;;;;;;;;;13.36;50.88;99045.19;5051626;28;19913;-81
2024/03/19 00:39:34;;;;;;;;;;;;;;;13.35;51.70;99046.22;5051543;28;20468;-81
2024/03/19 00:41:59;;;;;;;;;;;;;;;13.24;52.57;99038.91;5051384;28;19963;-81
2024/03/19 00:44:25;;;;;;;;;;;;;;;13.17;52.29;99048.69;5051703;28;19967;-80
2024/03/19 00:46:50;;;;;;;;;;;;;;;13.14;50.94;99043.78;5051577;28;19924;-81
2024/03/19 00:49:15;;;;;;;;;;;;;;;13.11;50.89;99047.66;5051357;28;20405;-80
2024/03/19 00:51:40;;;;;;;;;;;;;;;13.12;50.61;99043.97;5050143;28;19912;-80
2024/03/19 00:54:06;;;;;;;;;;;;;;;13.07;51.36;99046.44;5051710;28;19913;-81
2024/03/19 00:56:31;;;;;;;;;;;;;;;13.03;51.15;99045.22;5053979;28;19942;-80
2024/03/19 00:58:57;;;;;;;;;;;;;;;12.99;51.30;99054.59;5055322;28;20310;-81
2024/03/19 01:01:22;;;;;;;;;;;;;;;12.94;50.26;99047.28;5055397;28;19966;-80
2024/03/19 01:03:47;;;;;;;;;;;;;;;12.88;50.43;99044.63;5055132;28;19924;-80
2024/03/19 01:06:12;;;;;;;;;;;;;;;12.79;51.18;99035.25;5053707;28;20382;-81
2024/03/19 01:08:38;;;;;;;;;;;;;;;12.76;50.91;99036.47;5055037;28;19920;-81
2024/03/19 01:11:03;;;;;;;;;;;;;;;12.77;50.67;99027.50;5053776;28;19913;-81
2024/03/19 01:13:29;;;;;;;;;;;;;;;12.75;50.64;99026.09;5054065;28;19917;-81
2024/03/19 01:15:55;;;;;;;;;;;;;;;12.69;50.87;99020.59;5054930;28;19951;-81
2024/03/19 01:18:20;;;;;;;;;;;;;;;12.70;51.17;99010.81;5054835;28;20006;-80
2024/03/19 01:20:46;;;;;;;;;;;;;;;12.72;50.71;99003.47;5055103;28;19910;-81
2024/03/19 01:23:11;;;;;;;;;;;;;;;12.71;50.52;99001.84;5055114;28;19920;-80
2024/03/19 01:25:36;;;;;;;;;;;;;;;12.71;50.79;99002.66;5053502;28;19952;-80
2024/03/19 01:28:01;;;;;;;;;;;;;;;12.69;51.21;99006.53;5054887;28;19913;-81
2024/03/19 01:30:27;;;;;;;;;;;;;;;12.66;51.18;99009.59;5054748;28;19912;-80
2024/03/19 01:32:52;;;;;;;;;;;;;;;12.64;51.14;99015.09;5054653;28;20439;-81
2024/03/19 01:35:17;;;;;;;;;;;;;;;12.63;51.45;99018.75;5054693;28;20003;-81
2024/03/19 01:37:43;;;;;;;;;;;;;;;12.61;52.01;99020.75;5054586;28;20401;-81
2024/03/19 01:40:08;;;;;;;;;;;;;;;12.45;52.07;99025.66;5054551;28;19966;-80
2024/03/19 01:42:34;;;;;;;;;;;;;;;12.44;51.85;99024.00;5054534;28;20001;-81
2024/03/19 01:45:07;;;;;;;;;;;;;;;12.38;52.30;99029.09;5054478;28;19986;-81
2024/03/19 01:47:34;;;;;;;;;;;;;;;12.39;51.37;99030.72;5054719;28;19913;-81
2024/03/19 01:50:00;;;;;;;;;;;;;;;12.38;51.45;99034.41;5054497;28;19920;-81
2024/03/19 01:52:25;;;;;;;;;;;;;;;12.36;51.41;99031.13;5054600;28;19905;-81
2024/03/19 01:54:51;;;;;;;;;;;;;;;12.31;52.22;99032.75;5054487;28;19912;-81
2024/03/19 01:57:16;;;;;;;;;;;;;;;12.26;51.63;99035.19;5054658;28;19948;-81
2024/03/19 01:59:42;;;;;;;;;;;;;;;12.22;51.49;99034.78;5054241;28;19995;-81
2024/03/19 02:02:27;;;;;;;;;;;;;;;12.21;51.73;99035.81;5053970;28;19935;-80
2024/03/19 02:04:52;;;;;;;;;;;;;;;12.18;51.81;99038.84;5054037;28;19919;-81
2024/03/19 02:07:17;;;;;;;;;;;;;;;12.14;52.83;99037.63;5052677;28;20003;-81
2024/03/19 02:09:44;;;;;;;;;;;;;;;12.13;51.80;99035.16;5054067;28;19963;-81
2024/03/19 02:12:09;;;;;;;;;;;;;;;12.14;51.95;99034.16;5054086;28;19944;-81
2024/03/19 02:14:34;;;;;;;;;;;;;;;12.08;52.26;99044.53;5054017;28;20467;-81
2024/03/19 02:16:59;;;;;;;;;;;;;;;12.11;51.55;99048.59;5053962;28;19913;-81
2024/03/19 02:19:25;;;;;;;;;;;;;;;12.11;51.75;99045.97;5053792;28;19997;-81
2024/03/19 02:21:50;;;;;;;;;;;;;;;12.05;52.05;99033.53;5052551;28;19919;-81
2024/03/19 02:24:15;;;;;;;;;;;;;;;12.02;51.19;99034.75;5053832;28;19936;-81
2024/03/19 02:26:41;;;;;;;;;;;;;;;11.94;51.79;99037.56;5053757;28;20004;-81
2024/03/19 02:29:07;;;;;;;;;;;;;;;11.89;52.03;99041.78;5053706;28;20374;-81
2024/03/19 02:31:32;;;;;;;;;;;;;;;11.83;51.21;99032.81;5052544;28;19916;-80
2024/03/19 02:33:57;;;;;;;;;;;;;;;11.77;51.64;99034.44;5053652;28;19916;-80
2024/03/19 02:36:23;;;;;;;;;;;;;;;11.70;52.32;99035.38;5053725;28;19909;-81
2024/03/19 02:38:48;;;;;;;;;;;;;;;11.66;52.69;99031.50;5053512;28;19913;-81
2024/03/19 02:41:14;;;;;;;;;;;;;;;11.64;52.53;99031.72;5053471;28;19912;-81
2024/03/19 02:43:40;;;;;;;;;;;;;;;11.64;53.56;99044.94;5053311;28;19995;-81
2024/03/19 02:46:05;;;;;;;;;;;;;;;11.64;52.69;99041.47;5053314;28;19956;-81
2024/03/19 02:48:30;;;;;;;;;;;;;;;11.63;52.33;99035.38;5053200;28;19952;-81
2024/03/19 02:50:56;;;;;;;;;;;;;;;11.53;53.82;99044.66;5053282;28;19912;-81
2024/03/19 02:53:22;;;;;;;;;;;;;;;11.51;53.56;99057.28;5053281;28;19913;-81
2024/03/19 02:55:48;;;;;;;;;;;;;;;11.52;52.83;99059.72;5053220;28;19936;-81
2024/03/19 02:58:14;;;;;;;;;;;;;;;11.49;54.28;99048.72;5053290;28;19923;-81
2024/03/19 03:00:39;;;;;;;;;;;;;;;11.54;52.42;99051.59;5053009;28;19920;-81
2024/03/19 03:03:04;;;;;;;;;;;;;;;11.53;52.66;99042.03;5052907;28;19920;-81
2024/03/19 03:05:30;;;;;;;;;;;;;;;11.52;52.93;99051.78;5051578;28;19916;-81
2024/03/19 03:07:56;;;;;;;;;;;;;;;11.50;52.74;99053.00;5052960;28;19917;-81
2024/03/19 03:10:22;;;;;;;;;;;;;;;11.49;52.75;99049.53;5051490;28;19949;-81
2024/03/19 03:12:47;;;;;;;;;;;;;;;11.49;53.19;99054.00;5052740;28;19919;-81
2024/03/19 03:15:13;;;;;;;;;;;;;;;11.55;52.88;99047.94;5051394;28;20325;-81
2024/03/19 03:17:39;;;;;;;;;;;;;;;11.56;52.27;99037.16;5052397;28;19913;-81
2024/03/19 03:20:05;;;;;;;;;;;;;;;11.55;52.72;99035.53;5052731;28;20439;-81
2024/03/19 03:22:30;;;;;;;;;;;;;;;11.54;52.03;99041.00;5052708;28;19959;-81
2024/03/19 03:24:56;;;;;;;;;;;;;;;11.54;52.68;99043.66;5052444;28;20338;-81
2024/03/19 03:27:22;;;;;;;;;;;;;;;11.53;53.09;99039.38;5051145;28;19912;-81
2024/03/19 03:29:48;;;;;;;;;;;;;;;11.54;52.51;99044.47;5052787;28;20003;-81
2024/03/19 03:32:13;;;;;;;;;;;;;;;11.54;52.37;99057.69;5052337;28;19913;-81
2024/03/19 03:34:38;;;;;;;;;;;;;;;11.54;52.84;99062.16;5052386;28;19913;-81
2024/03/19 03:37:06;;;;;;;;;;;;;;;11.53;52.27;99050.78;5051125;28;19979;-81
2024/03/19 03:39:31;;;;;;;;;;;;;;;11.49;53.02;99051.38;5052512;28;19985;-81
2024/03/19 03:41:56;;;;;;;;;;;;;;;11.41;52.44;99044.41;5052301;28;19996;-81
2024/03/19 03:44:21;;;;;;;;;;;;;;;11.42;53.48;99048.69;5052179;28;19912;-81
2024/03/19 03:46:47;;;;;;;;;;;;;;;11.44;53.53;99047.47;5052075;28;20108;-81
2024/03/19 03:49:12;;;;;;;;;;;;;;;11.42;53.74;99041.56;5052250;28;20010;-81
2024/03/19 03:51:37;;;;;;;;;;;;;;;11.40;53.20;99040.94;5052151;28;19913;-81
2024/03/19 03:54:03;;;;;;;;;;;;;;;11.44;53.53;99041.38;5052156;28;20428;-81
2024/03/19 03:56:28;;;;;;;;;;;;;;;11.49;53.42;99043.44;5051943;28;19916;-81
2024/03/19 03:58:54;;;;;;;;;;;;;;;11.50;53.45;99048.53;5050736;28;19913;-81
2024/03/19 04:01:19;;;;;;;;;;;;;;;11.53;52.78;99049.97;5050653;28;19916;-81
2024/03/19 04:03:45;;;;;;;;;;;;;;;11.43;54.21;99051.13;5051776;28;19928;-81
2024/03/19 04:06:12;;;;;;;;;;;;;;;11.44;53.05;99049.31;5050262;28;20462;-81
2024/03/19 04:08:39;;;;;;;;;;;;;;;11.44;53.61;99057.25;5052126;28;19916;-81
2024/03/19 04:11:04;;;;;;;;;;;;;;;11.46;53.54;99065.78;5052640;28;20499;-81
2024/03/19 04:13:30;;;;;;;;;;;;;;;11.46;55.42;99056.03;5051885;28;19916;-81
2024/03/19 04:15:56;;;;;;;;;;;;;;;11.42;53.68;99057.44;5051822;28;19967;-81
2024/03/19 04:18:22;;;;;;;;;;;;;;;11.45;53.52;99059.69;5051594;28;19913;-81
2024/03/19 04:20:49;;;;;;;;;;;;;;;11.43;53.86;99052.97;5051765;28;19920;-81
2024/03/19 04:23:14;;;;;;;;;;;;;;;11.43;54.45;99066.19;5050462;28;19913;-81
2024/03/19 04:25:40;;;;;;;;;;;;;;;11.42;55.14;99057.44;5051714;28;19986;-81
2024/03/19 04:28:05;;;;;;;;;;;;;;;11.39;55.15;99063.09;5051676;28;19952;-81
2024/03/19 04:30:30;;;;;;;;;;;;;;;11.39;54.60;99054.38;5050910;28;20278;-81
2024/03/19 04:32:56;;;;;;;;;;;;;;;11.40;54.09;99062.09;5051365;28;20359;-81
2024/03/19 04:35:21;;;;;;;;;;;;;;;11.33;54.71;99055.13;5051731;28;20012;-81
2024/03/19 04:37:46;;;;;;;;;;;;;;;11.31;55.73;99057.97;5051559;28;19912;-81
2024/03/19 04:40:12;;;;;;;;;;;;;;;11.37;54.66;99065.13;5051590;28;20004;-81
2024/03/19 04:42:38;;;;;;;;;;;;;;;11.42;53.63;99067.19;5051587;28;20373;-81
2024/03/19 04:45:06;;;;;;;;;;;;;;;11.42;54.44;99068.00;5051436;28;20018;-81
2024/03/19 04:47:31;;;;;;;;;;;;;;;11.41;54.84;99071.66;5051537;28;19920;-82
2024/03/19 04:49:56;;;;;;;;;;;;;;;11.44;54.37;99073.09;5050090;28;19913;-81
2024/03/19 04:52:21;;;;;;;;;;;;;;;11.41;56.33;99076.94;5051533;28;19951;-81
2024/03/19 04:54:47;;;;;;;;;;;;;;;11.40;55.17;99077.13;5051371;28;20325;-81
2024/03/19 04:57:12;;;;;;;;;;;;;;;11.41;55.72;99082.22;5049987;28;19917;-81
2024/03/19 04:59:37;;;;;;;;;;;;;;;11.47;54.71;99078.00;5051694;28;19909;-81
2024/03/19 05:02:03;;;;;;;;;;;;;;;11.52;55.05;99085.34;5050971;28;20295;-80
2024/03/19 05:04:28;;;;;;;;;;;;;;;11.56;55.29;99083.94;5050992;28;19917;-81
2024/03/19 05:06:53;;;;;;;;;;;;;;;11.61;54.77;99084.16;5051181;28;19921;-81
2024/03/19 05:09:19;;;;;;;;;;;;;;;11.64;54.11;99083.78;5051122;28;20401;-80
2024/03/19 05:11:44;;;;;;;;;;;;;;;11.66;54.50;99087.84;5051249;28;19912;-81
2024/03/19 05:14:10;;;;;;;;;;;;;;;11.69;55.28;99087.47;5051153;28;19914;-81
2024/03/19 05:16:35;;;;;;;;;;;;;;;11.72;56.23;99088.91;5051190;28;20386;-81
2024/03/19 05:19:00;;;;;;;;;;;;;;;11.73;55.26;99091.34;5051165;28;19913;-81
2024/03/19 05:21:26;;;;;;;;;;;;;;;11.77;54.50;99097.91;5051149;28;19920;-81
2024/03/19 05:23:51;;;;;;;;;;;;;;;11.80;54.68;99093.22;5051132;28;20472;-81
2024/03/19 05:26:16;;;;;;;;;;;;;;;11.79;54.34;99097.72;5049483;28;19917;-81
2024/03/19 05:28:42;;;;;;;;;;;;;;;11.84;55.50;99100.59;5050984;28;19913;-81
2024/03/19 05:31:24;;;;;;;;;;;;;;;11.88;54.17;99095.72;5050961;28;19917;-81
2024/03/19 05:33:50;;;;;;;;;;;;;;;11.88;54.35;99096.53;5051022;28;19951;-81
2024/03/19 05:36:15;;;;;;;;;;;;;;;11.87;53.83;99094.91;5051147;28;20027;-81
2024/03/19 05:38:41;;;;;;;;;;;;;;;11.88;54.44;99107.09;5049708;28;19996;-81
2024/03/19 05:41:07;;;;;;;;;;;;;;;11.92;55.01;99102.28;5052825;28;19912;-81
2024/03/19 05:43:32;;;;;;;;;;;;;;;11.95;54.91;99107.16;5054406;28;19920;-81
2024/03/19 05:45:57;;;;;;;;;;;;;;;11.96;54.25;99106.97;5054660;28;20408;-81
2024/03/19 05:48:22;;;;;;;;;;;;;;;12.00;54.50;99105.56;5053178;28;19917;-81
2024/03/19 05:50:47;;;;;;;;;;;;;;;12.02;54.67;99108.81;5054601;28;19913;-81
2024/03/19 05:53:13;;;;;;;;;;;;;;;12.08;54.09;99110.69;5055011;28;19921;-81
2024/03/19 05:55:38;;;;;;;;;;;;;;;12.09;54.74;99099.09;5054862;28;19912;-80
2024/03/19 05:58:03;;;;;;;;;;;;;;;12.09;54.49;99098.25;5054319;28;20347;-81
2024/03/19 06:00:29;;;;;;;;;;;;;;;12.13;54.60;99096.84;5054181;28;19913;-81
2024/03/19 06:02:54;;;;;;;;;;;;;;;12.06;54.83;99099.47;5053937;28;20488;-81
2024/03/19 06:05:19;;;;;;;;;;;;;;;12.01;56.12;99101.91;5053992;28;19917;-82
2024/03/19 06:07:44;;;;;;;;;;;;;;;11.96;55.74;99104.31;5053819;28;20305;-81
2024/03/19 06:10:10;;;;;;;;;;;;;;;12.00;55.23;99100.28;5061947;28;20057;-81
2024/03/19 06:12:36;;;;;;;;;;;;;;;12.02;54.84;99103.53;5073678;28;19970;-81
2024/03/19 06:15:02;;;;;;;;;;;;;;;12.05;54.82;99103.13;5072467;28;19916;-81
2024/03/19 06:17:27;;;;;;;;;;;;;;;12.12;55.32;99097.06;5072657;28;19963;-81
2024/03/19 06:19:53;;;;;;;;;;;;;;;12.16;55.43;99107.03;5073983;28;19913;-81
2024/03/19 06:22:18;;;;;;;;;;;;;;;12.20;55.18;99102.97;5073403;28;19916;-81
2024/03/19 06:24:43;;;;;;;;;;;;;;;12.28;54.21;99097.50;5073661;28;19912;-81
2024/03/19 06:27:08;;;;;;;;;;;;;;;12.29;55.42;99100.97;5073531;28;20451;-81
2024/03/19 06:29:34;;;;;;;;;;;;;;;12.33;55.47;99102.19;5065601;28;19924;-81
2024/03/19 06:31:59;;;;;;;;;;;;;;;12.34;55.28;99106.47;5052145;28;19913;-81
2024/03/19 06:34:24;;;;;;;;;;;;;;;12.39;54.27;99107.50;5052136;28;20313;-81
2024/03/19 06:36:52;;;;;;;;;;;;;;;12.43;54.53;99115.88;5053619;28;19913;-81
2024/03/19 06:39:17;;;;;;;;;;;;;;;12.44;54.07;99125.44;5053540;28;19978;-81
2024/03/19 06:41:42;;;;;;;;;;;;;;;12.46;54.35;99126.06;5053531;28;19917;-81
2024/03/19 06:44:08;;;;;;;;;;;;;;;12.48;54.16;99129.31;5053546;28;19974;-81
2024/03/19 06:46:33;;;;;;;;;;;;;;;12.51;54.70;99150.09;5054387;28;19924;-82
2024/03/19 06:48:58;;;;;;;;;;;;;;;12.44;55.18;99161.69;5070141;28;19912;-82
2024/03/19 06:51:24;;;;;;;;;;;;;;;12.41;55.15;99161.06;5072341;28;19908;-81
2024/03/19 06:53:49;;;;;;;;;;;;;;;12.43;53.71;99152.94;5072227;28;20046;-81
2024/03/19 06:56:15;;;;;;;;;;;;;;;12.39;54.85;99141.94;5071437;28;20282;-81
2024/03/19 06:58:43;;;;;;;;;;;;;;;12.37;54.54;99151.09;5073216;28;19912;-81
2024/03/19 07:01:09;;;;;;;;;;;;;;;12.33;54.95;99147.19;5071767;28;19916;-82
2024/03/19 07:03:34;;;;;;;;;;;;;;;12.28;56.27;99147.81;5072974;28;19921;-81
2024/03/19 07:06:01;;;;;;;;;;;;;;;12.27;55.30;99148.81;5072729;28;20404;-81
2024/03/19 07:08:26;;;;;;;;;;;;;;;12.23;55.74;99146.75;5072467;28;19912;-82
2024/03/19 07:10:51;;;;;;;;;;;;;;;12.21;55.19;99148.78;5072708;28;20313;-82
2024/03/19 07:13:17;;;;;;;;;;;;;;;12.22;55.24;99151.25;5072457;28;20301;-82
2024/03/19 07:15:42;;;;;;;;;;;;;;;12.23;55.74;99155.53;5072651;28;19912;-81
2024/03/19 07:18:10;;;;;;;;;;;;;;;12.25;54.07;99152.69;5072931;28;20355;-82
2024/03/19 07:20:36;;;;;;;;;;;;;;;12.24;55.49;99148.41;5072776;28;20404;-81
2024/03/19 07:23:02;;;;;;;;;;;;;;;12.23;55.61;99150.22;5071289;28;19912;-81
2024/03/19 07:25:28;;;;;;;;;;;;;;;12.19;55.36;99156.13;5072468;28;20480;-82
2024/03/19 07:27:53;;;;;;;;;;;;;;;12.18;55.53;99162.41;5071099;28;20030;-82
2024/03/19 07:30:18;;;;;;;;;;;;;;;12.19;56.15;99172.81;5072372;28;19913;-81
2024/03/19 07:32:44;;;;;;;;;;;;;;;12.27;55.08;99174.47;5072634;28;19912;-81
2024/03/19 07:35:10;;;;;;;;;;;;;;;12.35;55.71;99179.59;5055792;28;20007;-81
2024/03/19 07:37:36;;;;;;;;;;;;;;;12.42;55.82;99185.72;5069280;28;19970;-82
2024/03/19 07:40:03;;;;;;;;;;;;;;;12.47;55.69;99180.66;5072038;28;19918;-82
2024/03/19 07:42:28;;;;;;;;;;;;;;;12.49;55.08;99188.41;5068610;28;19928;-82
2024/03/19 07:44:54;;;;;;;;;;;;;;;12.51;53.88;99197.78;5049861;28;19913;-82
2024/03/19 07:47:19;;;;;;;;;;;;;;;12.51;53.95;99189.81;5032039;28;19913;-82
2024/03/19 07:49:47;;;;;;;;;;;;;;;12.40;54.91;99201.81;5031985;28;19952;-81
2024/03/19 07:52:16;;;;;;;;;;;;;;;12.40;55.34;99199.16;5044179;28;19932;-81
2024/03/19 07:54:41;;;;;;;;;;;;;;;12.36;56.46;99199.75;5064410;28;19916;-82
2024/03/19 07:57:07;;;;;;;;;;;;;;;12.35;56.36;99198.94;5053564;28;19977;-81
2024/03/19 07:59:32;;;;;;;;;;;;;;;12.34;56.32;99196.50;5059431;28;20003;-82
2024/03/19 08:01:58;;;;;;;;;;;;;;;12.37;56.69;99201.38;5071622;28;20373;-81
2024/03/19 08:04:24;;;;;;;;;;;;;;;12.40;56.96;99201.00;5071944;28;20005;-81
2024/03/19 08:06:50;;;;;;;;;;;;;;;12.40;55.62;99207.09;5071692;28;19978;-81
2024/03/19 08:09:18;;;;;;;;;;;;;;;12.41;55.70;99203.44;5071859;28;19919;-81
2024/03/19 08:11:44;;;;;;;;;;;;;;;12.35;58.18;99203.41;5070429;28;19919;-81
2024/03/19 08:14:09;;;;;;;;;;;;;;;12.33;57.77;99205.44;5071686;28;19912;-82
2024/03/19 08:16:35;;;;;;;;;;;;;;;12.33;55.63;99205.44;5071718;28;19920;-81
2024/03/19 08:19:00;;;;;;;;;;;;;;;12.36;58.12;99223.59;5066881;28;20390;-81
2024/03/19 08:21:26;;;;;;;;;;;;;;;12.43;54.95;99194.47;5051518;28;19913;-82
2024/03/19 08:23:51;;;;;;;;;;;;;;;12.42;54.90;99196.31;5051374;28;20002;-81
2024/03/19 08:26:17;;;;;;;;;;;;;;;12.36;55.35;99207.69;5052057;28;20004;-82
2024/03/19 08:28:43;;;;;;;;;;;;;;;12.32;57.40;99203.81;5051246;28;20317;-81
2024/03/19 08:31:09;;;;;;;;;;;;;;;12.37;56.61;99198.75;5060911;28;19920;-81
2024/03/19 08:33:38;;;;;;;;;;;;;;;12.41;56.89;99203.44;5071259;28;19912;-81
2024/03/19 08:36:06;;;;;;;;;;;;;;;12.42;58.60;99209.56;5071418;28;19912;-81
2024/03/19 08:38:32;;;;;;;;;;;;;;;12.47;57.34;99204.47;5071232;28;19912;-82
2024/03/19 08:41:01;;;;;;;;;;;;;;;12.54;57.12;99200.03;5071363;28;19969;-81
2024/03/19 08:43:26;;;;;;;;;;;;;;;12.63;57.69;99198.84;5071517;28;19935;-82
2024/03/19 08:45:52;;;;;;;;;;;;;;;12.71;58.03;99200.50;5064307;28;20378;-82
2024/03/19 08:48:17;;;;;;;;;;;;;;;12.80;57.09;99198.50;5051131;28;19913;-81
2024/03/19 08:50:42;;;;;;;;;;;;;;;12.89;57.42;99206.03;5051343;28;20403;-82
2024/03/19 08:53:07;;;;;;;;;;;;;;;12.95;56.68;99193.81;5063549;28;19921;-81
2024/03/19 08:55:36;;;;;;;;;;;;;;;13.01;56.41;99196.47;5069899;28;19995;-81
2024/03/19 08:58:01;;;;;;;;;;;;;;;13.05;54.68;99196.91;5064965;28;19917;-81
2024/03/19 09:00:26;;;;;;;;;;;;;;;13.02;56.57;99194.66;5052310;28;19932;-81
2024/03/19 09:02:51;;;;;;;;;;;;;;;13.00;55.55;99191.38;5045702;28;20560;-82
2024/03/19 09:05:17;;;;;;;;;;;;;;;12.98;57.16;99193.41;5050984;28;19917;-81
2024/03/19 09:07:42;;;;;;;;;;;;;;;13.05;57.32;99186.28;5056998;28;20405;-81
2024/03/19 09:10:08;;;;;;;;;;;;;;;13.08;57.64;99191.19;5067500;28;20459;-81
2024/03/19 09:12:34;;;;;;;;;;;;;;;13.08;56.78;99193.03;5060961;28;19999;-82
2024/03/19 09:15:00;;;;;;;;;;;;;;;13.05;57.92;99194.25;5052404;28;20011;-80
2024/03/19 09:17:25;;;;;;;;;;;;;;;13.08;55.87;99190.38;5048344;28;20059;-80
2024/03/19 09:19:50;;;;;;;;;;;;;;;13.06;57.02;99195.88;5034677;28;19917;-81
2024/03/19 09:22:16;;;;;;;;;;;;;;;13.02;57.82;99192.00;5045661;28;19924;-80
2024/03/19 09:24:41;;;;;;;;;;;;;;;13.02;57.96;99195.47;5059529;28;19964;-81
2024/03/19 09:27:08;;;;;;;;;;;;;;;13.08;58.18;99203.63;5072292;28;19924;-81
2024/03/19 09:29:33;;;;;;;;;;;;;;;13.05;58.92;99202.19;5054524;28;19955;-80
2024/03/19 09:31:59;;;;;;;;;;;;;;;13.07;58.82;99208.09;5054630;28;20329;-81
2024/03/19 09:34:24;;;;;;;;;;;;;;;13.07;58.58;99210.75;5036430;28;19921;-80
2024/03/19 09:36:50;;;;;;;;;;;;;;;13.09;58.76;99206.06;5034718;28;20315;-82
2024/03/19 09:39:15;;;;;;;;;;;;;;;13.07;58.50;99210.75;5034143;28;20024;-82
2024/03/19 09:41:50;;;;;;;;;;;;;;;13.03;58.99;99206.88;5043184;28;19921;-81
2024/03/19 09:44:17;;;;;;;;;;;;;;;13.01;59.69;99214.22;5052894;28;20014;-82
2024/03/19 09:46:43;;;;;;;;;;;;;;;12.99;59.32;99211.78;5054872;28;20055;-82
2024/03/19 09:49:14;;;;;;;;;;;;;;;12.97;59.25;99216.47;5046602;28;19978;-81
2024/03/19 09:51:40;;;;;;;;;;;;;;;12.97;59.93;99205.03;5057839;28;19988;-81
2024/03/19 09:54:07;;;;;;;;;;;;;;;12.95;59.44;99207.06;5046235;28;19975;-82
2024/03/19 09:56:32;;;;;;;;;;;;;;;12.97;59.90;99207.69;5042060;28;20409;-82
2024/03/19 09:58:58;;;;;;;;;;;;;;;13.00;59.48;99210.75;5033878;28;19921;-81
2024/03/19 10:01:24;;;;;;;;;;;;;;;13.02;60.00;99200.75;5034159;28;19913;-81
2024/03/19 10:03:49;;;;;;;;;;;;;;;13.08;59.92;99201.78;5040574;28;19927;-81
2024/03/19 10:06:18;;;;;;;;;;;;;;;13.13;60.25;99202.00;5047530;28;19920;-82
2024/03/19 10:08:44;;;;;;;;;;;;;;;13.20;59.76;99208.16;5049340;28;20002;-81
2024/03/19 10:11:10;;;;;;;;;;;;;;;13.27;58.43;99203.66;5049044;28;19923;-82
2024/03/19 10:13:36;;;;;;;;;;;;;;;13.30;60.49;99194.50;5052599;28;20392;-82
2024/03/19 10:16:01;;;;;;;;;;;;;;;13.32;60.00;99201.22;5051999;28;19956;-82
2024/03/19 10:18:26;;;;;;;;;;;;;;;13.39;58.08;99197.78;5053390;28;19920;-82
2024/03/19 10:20:55;;;;;;;;;;;;;;;13.43;57.29;99197.16;5044793;28;19987;-81
2024/03/19 10:23:20;;;;;;;;;;;;;;;13.46;57.84;99196.75;5037151;28;20000;-81
2024/03/19 10:25:51;;;;;;;;;;;;;;;13.48;59.97;99193.91;5050043;28;20016;-82
2024/03/19 10:28:18;;;;;;;;;;;;;;;13.50;59.02;99197.97;5052183;28;19917;-81
2024/03/19 10:30:47;;;;;;;;;;;;;;;13.55;59.51;99197.38;5053562;28;19913;-82
2024/03/19 10:33:13;;;;;;;;;;;;;;;13.61;58.29;99193.88;5053311;28;19924;-82
2024/03/19 10:35:40;;;;;;;;;;;;;;;13.63;57.77;99187.34;5046660;28;20008;-81
2024/03/19 10:38:08;;;;;;;;;;;;;;;13.64;59.05;99188.16;5042688;28;20063;-82
2024/03/19 10:40:34;;;;;;;;;;;;;;;13.67;58.76;99195.72;5033556;28;20115;-81
2024/03/19 10:43:00;;;;;;;;;;;;;;;13.75;57.76;99189.38;5039883;28;20003;-81
2024/03/19 10:45:28;;;;;;;;;;;;;;;13.84;55.85;99188.94;5052534;28;19932;-81
2024/03/19 10:47:54;;;;;;;;;;;;;;;13.92;56.51;99185.25;5053113;28;19960;-81
2024/03/19 10:50:21;;;;;;;;;;;;;;;13.96;57.84;99179.31;5053073;28;19982;-81
2024/03/19 10:52:53;;;;;;;;;;;;;;;14.08;56.85;99168.88;5042725;28;19943;-82
2024/03/19 10:55:19;;;;;;;;;;;;;;;14.27;55.88;99175.16;5033237;28;19925;-81
2024/03/19 10:57:45;;;;;;;;;;;;;;;14.37;56.08;99166.75;5044870;28;19960;-81
2024/03/19 11:00:17;;;;;;;;;;;;;;;14.44;56.95;99160.41;5032994;28;19967;-81
2024/03/19 11:02:49;;;;;;;;;;;;;;;14.60;56.33;99164.41;5032885;28;19925;-81
2024/03/19 11:05:16;;;;;;;;;;;;;;;14.67;57.79;99165.19;5034164;28;19917;-81
2024/03/19 11:07:45;;;;;;;;;;;;;;;14.73;56.95;99166.16;5057273;28;20313;-81
2024/03/19 11:10:40;;;;;;;;;;;;;;;14.77;56.41;99159.41;5050907;28;20317;-80
2024/03/19 11:13:06;;;;;;;;;;;;;;;14.77;55.66;99159.41;5039600;28;19913;-81
2024/03/19 11:15:32;;;;;;;;;;;;;;;14.66;57.12;99160.06;5051212;28;19971;-80
2024/03/19 11:17:58;;;;;;;;;;;;;;;14.57;56.63;99154.19;5051425;28;19917;-81
2024/03/19 11:20:30;;;;;;;;;;;;;;;14.47;56.98;99157.31;5052590;28;20239;-81
2024/03/19 11:22:56;;;;;;;;;;;;;;;14.39;56.41;99157.53;5052646;28;19919;-81
2024/03/19 11:25:21;;;;;;;;;;;;;;;14.32;56.41;99156.75;5034121;28;19921;-81
2024/03/19 11:27:50;;;;;;;;;;;;;;;14.28;56.19;99156.38;5040932;28;19924;-80
2024/03/19 11:30:16;;;;;;;;;;;;;;;14.24;55.79;99157.81;5033830;28;20405;-81
2024/03/19 11:32:42;;;;;;;;;;;;;;;14.24;55.71;99160.47;5030472;28;19919;-81
2024/03/19 11:35:23;;;;;;;;;;;;;;;14.21;55.52;99158.22;5038567;28;20012;-80
2024/03/19 11:37:49;;;;;;;;;;;;;;;14.11;55.44;99155.19;5052271;28;19940;-80
2024/03/19 11:40:14;;;;;;;;;;;;;;;14.08;54.98;99147.63;5050032;28;20355;-80
2024/03/19 11:42:40;;;;;;;;;;;;;;;14.07;54.87;99156.63;5052187;28;19912;-81
2024/03/19 11:45:08;;;;;;;;;;;;;;;13.97;54.92;99159.72;5040208;28;19964;-80
2024/03/19 11:47:33;;;;;;;;;;;;;;;13.95;54.77;99153.00;5041992;28;20753;-81
2024/03/19 11:49:58;;;;;;;;;;;;;;;13.94;54.80;99159.31;5032694;28;19916;-80
2024/03/19 11:52:24;;;;;;;;;;;;;;;13.87;54.98;99159.34;5034309;28;19917;-81
2024/03/19 11:54:50;;;;;;;;;;;;;;;13.86;54.88;99152.41;5032057;28;19921;-81
2024/03/19 11:57:16;;;;;;;;;;;;;;;13.82;55.14;99151.19;5031835;28;20373;-81
2024/03/19 11:59:41;;;;;;;;;;;;;;;13.77;55.05;99156.31;5032992;28;19924;-81
2024/03/19 12:02:07;;;;;;;;;;;;;;;13.71;55.23;99159.78;5031415;28;19929;-81
2024/03/19 12:04:34;;;;;;;;;;;;;;;13.69;55.23;99164.50;5040846;28;19971;-81
2024/03/19 12:06:59;;;;;;;;;;;;;;;13.63;55.21;99170.63;5032486;28;20466;-81
2024/03/19 12:09:28;;;;;;;;;;;;;;;13.56;56.10;99165.34;5039973;28;19916;-81
2024/03/19 12:11:54;;;;;;;;;;;;;;;13.54;56.16;99174.50;5044277;28;19998;-81
2024/03/19 12:14:23;;;;;;;;;;;;;;;13.57;56.59;99166.16;5030574;28;20006;-81
2024/03/19 12:16:49;;;;;;;;;;;;;;;13.61;56.00;99168.19;5032147;28;19979;-81
2024/03/19 12:19:19;;;;;;;;;;;;;;;13.64;56.42;99164.28;5037083;28;19921;-81
2024/03/19 12:21:46;;;;;;;;;;;;;;;13.65;56.43;99157.97;5041496;28;19924;-82
2024/03/19 12:24:15;;;;;;;;;;;;;;;13.70;55.69;99158.16;5032938;28;19968;-82
2024/03/19 12:26:43;;;;;;;;;;;;;;;13.64;56.51;99162.47;5048152;28;20007;-81
2024/03/19 12:29:18;;;;;;;;;;;;;;;13.67;56.57;99167.34;5035634;28;20012;-82
2024/03/19 12:32:04;;;;;;;;;;;;;;;13.59;56.60;99156.97;5036672;28;19956;-82
2024/03/19 12:37:11;;;;;;;;;;;;;;;13.47;56.90;99158.63;5036195;28;19952;-82
2024/03/19 12:39:36;;;;;;;;;;;;;;;13.46;56.72;99154.31;5031454;28;19924;-82
2024/03/19 12:42:03;;;;;;;;;;;;;;;13.42;57.47;99168.22;5043684;28;19913;-82
2024/03/19 12:44:29;;;;;;;;;;;;;;;13.42;57.81;99176.16;5030331;28;20329;-82